Overview Statistics Trail Chart Weather Telemetry Raw packets
 

This is the latest recevied weather packets stored in our database for station/object KB4RFE. If no packets are shown the sender has not sent any weather packets the latest 10 day(s).

<< 73 74 75 76 77 78 79 >>
Time Temp. Humidity Pressure Rain* Wind** Luminosity Snow
1788101256 30.56° C 74% 1024.7 hPa 0 mm - 613 W/m² -
1788100952 30° C 77% 1024.5 hPa 0 mm - 640 W/m² -
1788100648 30° C 76% 1024.5 hPa 0 mm - 548 W/m² -
1788100346 30.56° C 76% 1024.6 hPa 0 mm - 611 W/m² -
1788100041 30.56° C 74% 1024.6 hPa 0 mm - 485 W/m² -
1788099736 30.56° C 75% 1024.5 hPa 0 mm - 507 W/m² -
1788099431 30° C 76% 1024.5 hPa 0 mm - 545 W/m² -
1788099126 30° C 77% 1024.3 hPa 0 mm - 440 W/m² -
1788098821 29.44° C 77% 1024.2 hPa 0 mm - 429 W/m² -
1788098516 28.89° C 81% 1024.2 hPa 0 mm - 513 W/m² -
1788098211 28.89° C 79% 1024.2 hPa 0 mm - 340 W/m² -
1788097906 28.89° C 80% 1024.2 hPa 0 mm - 342 W/m² -
1788097602 28.89° C 81% 1024.1 hPa 0 mm - 287 W/m² -
1788097297 28.89° C 81% 1024.2 hPa 0 mm - 430 W/m² -
1788096993 28.33° C 82% 1023.9 hPa 0 mm - 395 W/m² -
1788096688 28.33° C 83% 1024.1 hPa 0 mm - 368 W/m² -
1788096384 27.78° C 86% 1024 hPa 0 mm - 361 W/m² -
1788096079 27.22° C 87% 1023.7 hPa 0 mm - 338 W/m² -
1788095778 26.67° C 87% 1023.6 hPa 0 mm - 125 W/m² -
1788095473 26.67° C 88% 1023.6 hPa 0 mm - 186 W/m² -
1788095168 26.67° C 88% 1023.9 hPa 0 mm - 135 W/m² -
1788094863 26.11° C 89% 1024 hPa 0 mm - 129 W/m² -
1788094557 26.11° C 90% 1023.9 hPa 0 mm - 122 W/m² -
1788094256 26.11° C 90% 1024 hPa 0 mm - 111 W/m² -
1788093970 25.56° C 91% 1024 hPa 0 mm - 113 W/m² -

* Rain latest hour (hover to see other rain measurements)
** Current wind speed in m/s (hover to see current wind gust speed)